Strategic Vision — 9V3944 — position and weather

sailwx.info

Track history (hours):
 
Tides and Currents Weather Stations Pressure Air Temp Water Temp Dewpoint Dewpoint Depression Visibility Wind Speed Wind Dir Waves Ship Positions

Strategic Vision

Last reported at 2017-Dec-07 18:24 UTC. Time now 2018-Jan-21 22:48 UTC.
Position N 09°33' W 079°56'.
Warning: this ship's position is 45 days out of date.

Length 186 m; draft 11.3 m.

Type: Ship (hazmat cat A). MMSI: 565671000.

Date/timePositionNaut miles runAvg speedWind from/ knotsBaromVisibWave heightAir tempDewpointWater temp
2017-Dec-07 18:24N 09°33' W 079°56'511.6
2017-Dec-07 18:01N 09°29' W 079°55'612.4
2017-Dec-07 17:30N 09°23' W 079°55'4 8.8
2017-Dec-07 17:00N 09°18' W 079°55'2 3.7
2017-Dec-07 16:31N 09°17' W 079°55'0 0.4
2017-Dec-07 16:00N 09°16' W 079°55'0 0.5
2017-Dec-07 15:31N 09°16' W 079°55'1 1.1
2017-Dec-07 15:00N 09°16' W 079°55'0 0.8
2017-Dec-07 14:30N 09°15' W 079°55'0 0.6
2017-Dec-07 14:00N 09°16' W 079°55'1 1.7
2017-Dec-07 13:31N 09°15' W 079°55'4 7.4
2017-Dec-07 13:00N 09°11' W 079°53'21 4.7
2017-Dec-07 08:27N 08°60' W 079°35'  
Track history (hours):
 
Tides and Currents Weather Stations Pressure Air Temp Water Temp Dewpoint Dewpoint Depression Visibility Wind Speed Wind Dir Waves Ship Positions

Strategic Vision

Last reported at 2017-Dec-07 18:24 UTC. Time now 2018-Jan-21 22:48 UTC.
Position N 09°33' W 079°56'.
Warning: this ship's position is 45 days out of date.

Length 186 m; draft 11.3 m.

Type: Ship (hazmat cat A). MMSI: 565671000.

Date/timePositionNaut miles runAvg speedWind from/ knotsBaromVisibWave heightAir tempDewpointWater temp
2017-Dec-07 18:24N 09°33' W 079°56'511.6
2017-Dec-07 18:01N 09°29' W 079°55'612.4
2017-Dec-07 17:30N 09°23' W 079°55'4 8.8
2017-Dec-07 17:00N 09°18' W 079°55'2 3.7
2017-Dec-07 16:31N 09°17' W 079°55'0 0.4
2017-Dec-07 16:00N 09°16' W 079°55'0 0.5
2017-Dec-07 15:31N 09°16' W 079°55'1 1.1
2017-Dec-07 15:00N 09°16' W 079°55'0 0.8
2017-Dec-07 14:30N 09°15' W 079°55'0 0.6
2017-Dec-07 14:00N 09°16' W 079°55'1 1.7
2017-Dec-07 13:31N 09°15' W 079°55'4 7.4
2017-Dec-07 13:00N 09°11' W 079°53'21 4.7
2017-Dec-07 08:27N 08°60' W 079°35'  

Dump ship's entire track history